WZZ9EL LCLK-UKOO
Flight info
| Callsign | WZZ9EL |
|---|---|
| Flight time | 1h 53m |
| Altitude | 38000 |
| Route | RUDER DCT VESAR UB545 EVKIT UL619 MUT UL621 BUK UM861 RAKUR/K0828F380 M856 DIGAM P156 HONFA |
| Aircraft | A321/M-SDE3FGHIRWY/LB1 |
Departure
| Time | 2026-04-15 10:20 |
|---|---|
| Airport | Larnaca International Airport (LCLK) |
Arrival
| Time | 2026-04-15 12:14 |
|---|---|
| Airport | Odesa International Airport (UKOO) |
| Time | Latitude | Longitude | Altitude | Speed | Heading |
|---|---|---|---|---|---|
| 2026-04-15 10:06 | 34.86832 | 33.60991 | 13 ft | 0 kts | 46° |
| 2026-04-15 10:13 | 34.86826 | 33.60983 | 13 ft | 2 kts | 46° |
| 2026-04-15 10:13 | 34.86815 | 33.60970 | 13 ft | 2 kts | 46° |
| 2026-04-15 10:14 | 34.86805 | 33.60957 | 13 ft | 2 kts | 45° |
| 2026-04-15 10:14 | 34.86795 | 33.60943 | 13 ft | 2 kts | 68° |
| 2026-04-15 10:14 | 34.86792 | 33.60925 | 13 ft | 2 kts | 85° |
| 2026-04-15 10:14 | 34.86792 | 33.60907 | 13 ft | 2 kts | 103° |
| 2026-04-15 10:15 | 34.86797 | 33.60890 | 13 ft | 2 kts | 122° |
| 2026-04-15 10:15 | 34.86803 | 33.60880 | 13 ft | 0 kts | 134° |
| 2026-04-15 10:15 | 34.86808 | 33.60875 | 13 ft | 0 kts | 136° |
| 2026-04-15 10:17 | 34.86800 | 33.60884 | 13 ft | 3 kts | 134° |
| 2026-04-15 10:17 | 34.86774 | 33.60917 | 13 ft | 7 kts | 134° |
| 2026-04-15 10:17 | 34.86726 | 33.60976 | 13 ft | 11 kts | 135° |
| 2026-04-15 10:17 | 34.86669 | 33.61045 | 13 ft | 10 kts | 135° |
| 2026-04-15 10:18 | 34.86609 | 33.61082 | 13 ft | 10 kts | 194° |
| 2026-04-15 10:18 | 34.86548 | 33.61034 | 13 ft | 10 kts | 199° |
| 2026-04-15 10:18 | 34.86482 | 33.61068 | 13 ft | 11 kts | 118° |
| 2026-04-15 10:18 | 34.86491 | 33.61165 | 13 ft | 11 kts | 74° |
| 2026-04-15 10:19 | 34.86514 | 33.61262 | 13 ft | 12 kts | 73° |
| 2026-04-15 10:19 | 34.86539 | 33.61360 | 13 ft | 12 kts | 65° |
| 2026-04-15 10:19 | 34.86599 | 33.61446 | 13 ft | 21 kts | 44° |
| 2026-04-15 10:19 | 34.86872 | 33.61778 | 13 ft | 92 kts | 45° |
| 2026-04-15 10:20 | 34.87478 | 33.62519 | 21 ft | 151 kts | 46° |
| 2026-04-15 10:20 | 34.88262 | 33.63490 | 473 ft | 167 kts | 46° |
| 2026-04-15 10:20 | 34.89071 | 33.64506 | 1187 ft | 169 kts | 47° |
| 2026-04-15 10:20 | 34.89828 | 33.65511 | 1988 ft | 158 kts | 49° |
| 2026-04-15 10:21 | 34.90590 | 33.66531 | 2299 ft | 168 kts | 49° |
| 2026-04-15 10:21 | 34.91260 | 33.67733 | 2549 ft | 180 kts | 72° |
| 2026-04-15 10:21 | 34.91267 | 33.69294 | 2808 ft | 197 kts | 104° |
| 2026-04-15 10:21 | 34.90797 | 33.70941 | 3117 ft | 213 kts | 109° |
| 2026-04-15 10:22 | 34.90255 | 33.72710 | 3368 ft | 234 kts | 109° |
| 2026-04-15 10:22 | 34.89690 | 33.74636 | 3831 ft | 247 kts | 104° |
| 2026-04-15 10:22 | 34.89590 | 33.76775 | 4306 ft | 260 kts | 82° |
| 2026-04-15 10:22 | 34.89942 | 33.78943 | 5029 ft | 265 kts | 78° |
| 2026-04-15 10:23 | 34.90358 | 33.81123 | 5757 ft | 270 kts | 78° |
| 2026-04-15 10:23 | 34.90767 | 33.83390 | 6495 ft | 275 kts | 79° |
| 2026-04-15 10:23 | 34.91143 | 33.85662 | 7256 ft | 279 kts | 80° |
| 2026-04-15 10:23 | 34.91511 | 33.87996 | 8041 ft | 283 kts | 80° |
| 2026-04-15 10:24 | 34.91873 | 33.90360 | 8817 ft | 287 kts | 80° |
| 2026-04-15 10:24 | 34.92239 | 33.92767 | 9567 ft | 291 kts | 80° |
| 2026-04-15 10:24 | 34.92606 | 33.95187 | 10274 ft | 295 kts | 80° |
| 2026-04-15 10:24 | 34.92996 | 33.97673 | 10749 ft | 308 kts | 79° |
| 2026-04-15 10:25 | 34.93414 | 34.00314 | 11076 ft | 326 kts | 79° |
| 2026-04-15 10:25 | 34.93853 | 34.03091 | 11598 ft | 336 kts | 78° |
| 2026-04-15 10:25 | 34.94294 | 34.05870 | 12254 ft | 340 kts | 77° |
| 2026-04-15 10:25 | 34.95108 | 34.08575 | 12873 ft | 343 kts | 57° |
| 2026-04-15 10:26 | 34.96708 | 34.10692 | 13501 ft | 344 kts | 33° |
| 2026-04-15 10:26 | 34.98875 | 34.11888 | 14115 ft | 343 kts | 9° |
| 2026-04-15 10:26 | 35.01215 | 34.12014 | 14730 ft | 342 kts | 353° |
| 2026-04-15 10:26 | 35.03607 | 34.11721 | 15361 ft | 345 kts | 351° |
| 2026-04-15 10:27 | 35.05999 | 34.11400 | 15959 ft | 349 kts | 351° |
| 2026-04-15 10:27 | 35.08412 | 34.11090 | 16565 ft | 353 kts | 351° |
| 2026-04-15 10:27 | 35.10863 | 34.10789 | 17165 ft | 356 kts | 351° |
| 2026-04-15 10:27 | 35.13337 | 34.10495 | 17755 ft | 359 kts | 351° |
| 2026-04-15 10:28 | 35.15816 | 34.10207 | 18327 ft | 362 kts | 351° |
| 2026-04-15 10:28 | 35.18314 | 34.09920 | 18890 ft | 365 kts | 351° |
| 2026-04-15 10:28 | 35.20838 | 34.09633 | 19451 ft | 367 kts | 351° |
| 2026-04-15 10:28 | 35.23403 | 34.09343 | 20006 ft | 370 kts | 351° |
| 2026-04-15 10:29 | 35.25968 | 34.09053 | 20527 ft | 373 kts | 351° |
| 2026-04-15 10:29 | 35.28529 | 34.08765 | 21032 ft | 375 kts | 351° |
| 2026-04-15 10:29 | 35.31131 | 34.08474 | 21532 ft | 378 kts | 351° |
| 2026-04-15 10:29 | 35.33773 | 34.08176 | 22024 ft | 381 kts | 351° |
| 2026-04-15 10:30 | 35.36391 | 34.07880 | 22501 ft | 383 kts | 351° |
| 2026-04-15 10:30 | 35.39080 | 34.07576 | 22969 ft | 386 kts | 351° |
| 2026-04-15 10:30 | 35.41753 | 34.07274 | 23416 ft | 389 kts | 351° |
| 2026-04-15 10:30 | 35.44420 | 34.06972 | 23851 ft | 391 kts | 352° |
| 2026-04-15 10:31 | 35.47158 | 34.06661 | 24277 ft | 394 kts | 351° |
| 2026-04-15 10:31 | 35.49880 | 34.06355 | 24680 ft | 397 kts | 351° |
| 2026-04-15 10:31 | 35.52623 | 34.06046 | 25068 ft | 400 kts | 351° |
| 2026-04-15 10:31 | 35.55429 | 34.05729 | 25454 ft | 403 kts | 351° |
| 2026-04-15 10:32 | 35.58214 | 34.05413 | 25827 ft | 406 kts | 351° |
| 2026-04-15 10:32 | 35.61018 | 34.05095 | 26190 ft | 409 kts | 351° |
| 2026-04-15 10:32 | 35.63874 | 34.04770 | 26550 ft | 412 kts | 351° |
| 2026-04-15 10:32 | 35.66718 | 34.04447 | 26901 ft | 415 kts | 351° |
| 2026-04-15 10:33 | 35.69581 | 34.04121 | 27243 ft | 418 kts | 351° |
| 2026-04-15 10:33 | 35.72481 | 34.03790 | 27577 ft | 421 kts | 351° |
| 2026-04-15 10:33 | 35.75415 | 34.03456 | 27908 ft | 423 kts | 351° |
| 2026-04-15 10:33 | 35.78336 | 34.03123 | 28231 ft | 426 kts | 350° |
| 2026-04-15 10:34 | 35.81276 | 34.02788 | 28546 ft | 429 kts | 350° |
| 2026-04-15 10:34 | 35.84272 | 34.02445 | 28859 ft | 431 kts | 350° |
| 2026-04-15 10:34 | 35.87238 | 34.02058 | 29159 ft | 432 kts | 347° |
| 2026-04-15 10:34 | 35.90165 | 34.01308 | 29454 ft | 430 kts | 340° |
| 2026-04-15 10:35 | 35.92974 | 34.00133 | 29747 ft | 428 kts | 333° |
| 2026-04-15 10:35 | 35.95654 | 33.98537 | 30033 ft | 426 kts | 326° |
| 2026-04-15 10:35 | 35.98184 | 33.96687 | 30328 ft | 426 kts | 323° |
| 2026-04-15 10:35 | 36.00706 | 33.94763 | 30644 ft | 427 kts | 323° |
| 2026-04-15 10:36 | 36.03242 | 33.92818 | 30961 ft | 427 kts | 323° |
| 2026-04-15 10:36 | 36.05756 | 33.90897 | 31271 ft | 428 kts | 323° |
| 2026-04-15 10:36 | 36.08279 | 33.88976 | 31572 ft | 429 kts | 323° |
| 2026-04-15 10:36 | 36.10841 | 33.87031 | 31869 ft | 429 kts | 323° |
| 2026-04-15 10:37 | 36.13385 | 33.85101 | 32152 ft | 430 kts | 323° |
| 2026-04-15 10:37 | 36.15916 | 33.83181 | 32471 ft | 429 kts | 323° |
| 2026-04-15 10:37 | 36.18480 | 33.81236 | 32872 ft | 427 kts | 323° |
| 2026-04-15 10:37 | 36.21002 | 33.79323 | 33282 ft | 424 kts | 323° |
| 2026-04-15 10:38 | 36.23484 | 33.77437 | 33669 ft | 421 kts | 323° |
| 2026-04-15 10:38 | 36.25955 | 33.75557 | 34036 ft | 418 kts | 323° |
| 2026-04-15 10:38 | 36.28433 | 33.73671 | 34386 ft | 416 kts | 323° |
| 2026-04-15 10:38 | 36.30870 | 33.71814 | 34687 ft | 415 kts | 323° |
| 2026-04-15 10:39 | 36.33325 | 33.69939 | 34952 ft | 414 kts | 323° |
| 2026-04-15 10:39 | 36.35797 | 33.68050 | 35219 ft | 414 kts | 323° |
| 2026-04-15 10:39 | 36.38240 | 33.66183 | 35469 ft | 413 kts | 322° |
| 2026-04-15 10:39 | 36.40674 | 33.64321 | 35720 ft | 413 kts | 322° |
| 2026-04-15 10:40 | 36.43089 | 33.62473 | 35964 ft | 412 kts | 322° |
| 2026-04-15 10:40 | 36.45432 | 33.60680 | 36183 ft | 412 kts | 322° |
| 2026-04-15 10:40 | 36.47840 | 33.58834 | 36371 ft | 412 kts | 322° |
| 2026-04-15 10:40 | 36.50279 | 33.56963 | 36530 ft | 413 kts | 322° |
| 2026-04-15 10:41 | 36.52739 | 33.55074 | 36691 ft | 414 kts | 322° |
| 2026-04-15 10:41 | 36.55163 | 33.53212 | 36845 ft | 414 kts | 322° |
| 2026-04-15 10:41 | 36.57613 | 33.51329 | 36997 ft | 415 kts | 322° |
| 2026-04-15 10:41 | 36.60089 | 33.49424 | 37127 ft | 416 kts | 322° |
| 2026-04-15 10:42 | 36.62523 | 33.47550 | 37255 ft | 417 kts | 322° |
| 2026-04-15 10:42 | 36.65008 | 33.45636 | 37394 ft | 418 kts | 322° |
| 2026-04-15 10:42 | 36.67474 | 33.43735 | 37536 ft | 418 kts | 322° |
| 2026-04-15 10:42 | 36.69931 | 33.41841 | 37680 ft | 419 kts | 322° |
| 2026-04-15 10:43 | 36.72412 | 33.39927 | 37821 ft | 419 kts | 322° |
| 2026-04-15 10:43 | 36.74873 | 33.38025 | 37942 ft | 419 kts | 322° |
| 2026-04-15 10:43 | 36.77365 | 33.36097 | 38053 ft | 420 kts | 322° |
| 2026-04-15 10:44 | 36.82547 | 33.32582 | 38072 ft | 428 kts | 329° |
| 2026-04-15 10:44 | 36.88182 | 33.30100 | 38074 ft | 436 kts | 338° |
| 2026-04-15 10:45 | 36.94199 | 33.28778 | 38074 ft | 445 kts | 347° |
| 2026-04-15 10:45 | 37.00428 | 33.28369 | 38075 ft | 447 kts | 350° |
| 2026-04-15 10:46 | 37.06631 | 33.28070 | 38074 ft | 447 kts | 350° |
| 2026-04-15 10:46 | 37.12821 | 33.27755 | 38074 ft | 446 kts | 350° |
| 2026-04-15 10:47 | 37.19045 | 33.27427 | 38074 ft | 445 kts | 350° |
| 2026-04-15 10:47 | 37.25196 | 33.27099 | 38075 ft | 445 kts | 350° |
| 2026-04-15 10:48 | 37.31399 | 33.26767 | 38074 ft | 444 kts | 350° |
| 2026-04-15 10:48 | 37.37572 | 33.26436 | 38074 ft | 444 kts | 350° |
| 2026-04-15 10:49 | 37.43735 | 33.26105 | 38074 ft | 444 kts | 350° |
| 2026-04-15 10:49 | 37.49916 | 33.25772 | 38074 ft | 444 kts | 350° |
| 2026-04-15 10:50 | 37.56057 | 33.25442 | 38074 ft | 444 kts | 350° |
| 2026-04-15 10:50 | 37.62246 | 33.25108 | 38074 ft | 443 kts | 350° |
| 2026-04-15 10:51 | 37.68391 | 33.24775 | 38074 ft | 443 kts | 350° |
| 2026-04-15 10:51 | 37.74560 | 33.24440 | 38074 ft | 443 kts | 350° |
| 2026-04-15 10:52 | 37.80687 | 33.24108 | 38074 ft | 442 kts | 350° |
| 2026-04-15 10:52 | 37.86816 | 33.23775 | 38074 ft | 442 kts | 350° |
| 2026-04-15 10:53 | 37.92962 | 33.23441 | 38074 ft | 442 kts | 350° |
| 2026-04-15 10:53 | 37.99114 | 33.23106 | 38074 ft | 442 kts | 350° |
| 2026-04-15 10:54 | 38.05238 | 33.22777 | 38074 ft | 439 kts | 349° |
| 2026-04-15 10:54 | 38.11329 | 33.22443 | 38074 ft | 438 kts | 349° |
| 2026-04-15 10:55 | 38.17413 | 33.22109 | 38074 ft | 438 kts | 349° |
| 2026-04-15 10:55 | 38.23505 | 33.21775 | 38074 ft | 438 kts | 349° |
| 2026-04-15 10:56 | 38.29594 | 33.21441 | 38074 ft | 438 kts | 349° |
| 2026-04-15 10:56 | 38.35656 | 33.21109 | 38074 ft | 438 kts | 349° |
| 2026-04-15 10:57 | 38.41785 | 33.20773 | 38075 ft | 438 kts | 349° |
| 2026-04-15 10:57 | 38.50939 | 33.20270 | 38155 ft | 438 kts | 349° |
| 2026-04-15 10:58 | 38.56990 | 33.19937 | 38189 ft | 438 kts | 349° |
| 2026-04-15 10:58 | 38.63066 | 33.19601 | 38202 ft | 437 kts | 349° |
| 2026-04-15 10:59 | 38.69161 | 33.19265 | 38207 ft | 437 kts | 349° |
| 2026-04-15 10:59 | 38.75240 | 33.18928 | 38209 ft | 437 kts | 349° |
| 2026-04-15 11:00 | 38.81295 | 33.18593 | 38210 ft | 436 kts | 349° |
| 2026-04-15 11:00 | 38.87333 | 33.18258 | 38209 ft | 436 kts | 349° |
| 2026-04-15 11:01 | 38.93372 | 33.17921 | 38209 ft | 436 kts | 349° |
| 2026-04-15 11:01 | 38.99426 | 33.17583 | 38210 ft | 435 kts | 349° |
| 2026-04-15 11:02 | 39.05476 | 33.17245 | 38209 ft | 435 kts | 349° |
| 2026-04-15 11:02 | 39.11470 | 33.16910 | 38209 ft | 434 kts | 349° |
| 2026-04-15 11:03 | 39.17530 | 33.16571 | 38209 ft | 434 kts | 349° |
| 2026-04-15 11:03 | 39.23559 | 33.16233 | 38209 ft | 434 kts | 349° |
| 2026-04-15 11:04 | 39.29607 | 33.15892 | 38210 ft | 434 kts | 349° |
| 2026-04-15 11:04 | 39.35629 | 33.15552 | 38209 ft | 433 kts | 349° |
| 2026-04-15 11:05 | 39.41645 | 33.15213 | 38209 ft | 433 kts | 349° |
| 2026-04-15 11:05 | 39.47628 | 33.14876 | 38209 ft | 433 kts | 349° |
| 2026-04-15 11:06 | 39.53635 | 33.14536 | 38209 ft | 433 kts | 349° |
| 2026-04-15 11:06 | 39.59644 | 33.14194 | 38209 ft | 433 kts | 349° |
| 2026-04-15 11:07 | 39.65633 | 33.13855 | 38210 ft | 432 kts | 349° |
| 2026-04-15 11:07 | 39.71657 | 33.13512 | 38209 ft | 431 kts | 349° |
| 2026-04-15 11:08 | 39.77617 | 33.13172 | 38209 ft | 431 kts | 349° |
| 2026-04-15 11:08 | 39.83608 | 33.12829 | 38209 ft | 431 kts | 349° |
| 2026-04-15 11:09 | 39.89603 | 33.12487 | 38209 ft | 431 kts | 349° |
| 2026-04-15 11:09 | 39.95595 | 33.12143 | 38209 ft | 431 kts | 349° |
| 2026-04-15 11:10 | 40.01617 | 33.11797 | 38210 ft | 431 kts | 349° |
| 2026-04-15 11:10 | 40.07596 | 33.11454 | 38209 ft | 430 kts | 349° |
| 2026-04-15 11:11 | 40.13560 | 33.11112 | 38209 ft | 430 kts | 349° |
| 2026-04-15 11:11 | 40.19490 | 33.10672 | 38209 ft | 427 kts | 346° |
| 2026-04-15 11:12 | 40.25315 | 33.09517 | 38209 ft | 420 kts | 340° |
| 2026-04-15 11:12 | 40.30922 | 33.07560 | 38209 ft | 415 kts | 335° |
| 2026-04-15 11:13 | 40.36378 | 33.05196 | 38209 ft | 415 kts | 334° |
| 2026-04-15 11:13 | 40.41875 | 33.02787 | 38209 ft | 415 kts | 334° |
| 2026-04-15 11:14 | 40.47354 | 33.00388 | 38209 ft | 415 kts | 334° |
| 2026-04-15 11:14 | 40.52822 | 32.97992 | 38209 ft | 416 kts | 334° |
| 2026-04-15 11:15 | 40.58314 | 32.95584 | 38209 ft | 416 kts | 334° |
| 2026-04-15 11:15 | 40.63795 | 32.93175 | 38209 ft | 416 kts | 334° |
| 2026-04-15 11:16 | 40.69266 | 32.90768 | 38209 ft | 416 kts | 334° |
| 2026-04-15 11:16 | 40.74745 | 32.88354 | 38209 ft | 416 kts | 335° |
| 2026-04-15 11:17 | 40.80255 | 32.85920 | 38209 ft | 417 kts | 335° |
| 2026-04-15 11:17 | 40.85732 | 32.83499 | 38209 ft | 417 kts | 335° |
| 2026-04-15 11:18 | 40.91219 | 32.81067 | 38209 ft | 417 kts | 335° |
| 2026-04-15 11:18 | 40.96725 | 32.78624 | 38209 ft | 417 kts | 335° |
| 2026-04-15 11:19 | 41.02251 | 32.76166 | 38209 ft | 418 kts | 335° |
| 2026-04-15 11:19 | 41.07725 | 32.73728 | 38209 ft | 417 kts | 335° |
| 2026-04-15 11:20 | 41.13232 | 32.71270 | 38209 ft | 418 kts | 335° |
| 2026-04-15 11:20 | 41.18726 | 32.68816 | 38209 ft | 418 kts | 335° |
| 2026-04-15 11:21 | 41.24231 | 32.66350 | 38209 ft | 418 kts | 335° |
| 2026-04-15 11:21 | 41.29722 | 32.63887 | 38209 ft | 418 kts | 335° |
| 2026-04-15 11:22 | 41.35218 | 32.61418 | 38209 ft | 418 kts | 335° |
| 2026-04-15 11:22 | 41.40738 | 32.58933 | 38209 ft | 419 kts | 335° |
| 2026-04-15 11:23 | 41.46249 | 32.56448 | 38209 ft | 419 kts | 335° |
| 2026-04-15 11:23 | 41.51759 | 32.53957 | 38209 ft | 419 kts | 335° |
| 2026-04-15 11:24 | 41.57263 | 32.51467 | 38209 ft | 419 kts | 335° |
| 2026-04-15 11:24 | 41.62788 | 32.48962 | 38209 ft | 419 kts | 335° |
| 2026-04-15 11:25 | 41.68305 | 32.46455 | 38209 ft | 420 kts | 335° |
| 2026-04-15 11:25 | 41.73807 | 32.43952 | 38209 ft | 420 kts | 335° |
| 2026-04-15 11:26 | 41.79306 | 32.41445 | 38209 ft | 420 kts | 335° |
| 2026-04-15 11:26 | 41.84846 | 32.38915 | 38209 ft | 420 kts | 335° |
| 2026-04-15 11:27 | 41.90354 | 32.36396 | 38209 ft | 420 kts | 335° |
| 2026-04-15 11:27 | 41.95870 | 32.33865 | 38210 ft | 421 kts | 335° |
| 2026-04-15 11:28 | 42.01413 | 32.31320 | 38210 ft | 420 kts | 335° |
| 2026-04-15 11:28 | 42.06923 | 32.28785 | 38209 ft | 420 kts | 335° |
| 2026-04-15 11:29 | 42.12462 | 32.26233 | 38209 ft | 421 kts | 335° |
| 2026-04-15 11:29 | 42.17964 | 32.23692 | 38209 ft | 420 kts | 335° |
| 2026-04-15 11:30 | 42.23480 | 32.21141 | 38209 ft | 420 kts | 335° |
| 2026-04-15 11:30 | 42.28978 | 32.18593 | 38209 ft | 420 kts | 335° |
| 2026-04-15 11:31 | 42.34518 | 32.16021 | 38209 ft | 420 kts | 335° |
| 2026-04-15 11:31 | 42.40016 | 32.13464 | 38209 ft | 420 kts | 335° |
| 2026-04-15 11:32 | 42.45526 | 32.10896 | 38209 ft | 420 kts | 335° |
| 2026-04-15 11:32 | 42.51037 | 32.08322 | 38209 ft | 421 kts | 335° |
| 2026-04-15 11:33 | 42.56566 | 32.05736 | 38209 ft | 420 kts | 335° |
| 2026-04-15 11:33 | 42.62068 | 32.03158 | 38209 ft | 420 kts | 335° |
| 2026-04-15 11:34 | 42.67601 | 32.00561 | 38209 ft | 420 kts | 335° |
| 2026-04-15 11:34 | 42.73122 | 31.97967 | 38209 ft | 421 kts | 335° |
| 2026-04-15 11:35 | 42.78651 | 31.95390 | 38208 ft | 422 kts | 337° |
| 2026-04-15 11:35 | 42.84354 | 31.93317 | 38209 ft | 426 kts | 341° |
| 2026-04-15 11:36 | 42.90111 | 31.91467 | 38209 ft | 427 kts | 341° |
| 2026-04-15 11:36 | 42.95877 | 31.89614 | 38209 ft | 427 kts | 341° |
| 2026-04-15 11:37 | 43.01624 | 31.87758 | 38209 ft | 427 kts | 341° |
| 2026-04-15 11:37 | 43.07383 | 31.85891 | 38209 ft | 427 kts | 341° |
| 2026-04-15 11:38 | 43.13162 | 31.84014 | 38209 ft | 427 kts | 341° |
| 2026-04-15 11:38 | 43.18924 | 31.82139 | 38209 ft | 427 kts | 341° |
| 2026-04-15 11:39 | 43.24683 | 31.80260 | 38210 ft | 427 kts | 341° |
| 2026-04-15 11:39 | 43.30439 | 31.78379 | 38209 ft | 427 kts | 341° |
| 2026-04-15 11:40 | 43.36229 | 31.76483 | 38209 ft | 427 kts | 342° |
| 2026-04-15 11:40 | 43.41989 | 31.74595 | 38209 ft | 427 kts | 342° |
| 2026-04-15 11:41 | 43.47750 | 31.72700 | 38209 ft | 427 kts | 342° |
| 2026-04-15 11:41 | 43.53503 | 31.70768 | 38209 ft | 426 kts | 341° |
| 2026-04-15 11:42 | 43.59234 | 31.68832 | 38209 ft | 427 kts | 341° |
| 2026-04-15 11:42 | 43.65017 | 31.66879 | 38209 ft | 427 kts | 341° |
| 2026-04-15 11:43 | 43.70734 | 31.64946 | 38209 ft | 427 kts | 342° |
| 2026-04-15 11:43 | 43.76497 | 31.62992 | 38209 ft | 427 kts | 342° |
| 2026-04-15 11:44 | 43.82270 | 31.61033 | 38209 ft | 427 kts | 342° |
| 2026-04-15 11:44 | 43.88023 | 31.59077 | 38209 ft | 427 kts | 342° |
| 2026-04-15 11:45 | 43.93759 | 31.57122 | 38209 ft | 427 kts | 342° |
| 2026-04-15 11:45 | 43.99509 | 31.55159 | 38209 ft | 427 kts | 342° |
| 2026-04-15 11:46 | 44.05258 | 31.53189 | 38214 ft | 427 kts | 342° |
| 2026-04-15 11:46 | 44.11032 | 31.51211 | 38237 ft | 427 kts | 342° |
| 2026-04-15 11:47 | 44.16797 | 31.49233 | 38252 ft | 427 kts | 342° |
| 2026-04-15 11:47 | 44.22530 | 31.47261 | 38259 ft | 427 kts | 342° |
| 2026-04-15 11:48 | 44.28275 | 31.45280 | 38262 ft | 427 kts | 342° |
| 2026-04-15 11:48 | 44.34046 | 31.43288 | 38263 ft | 427 kts | 342° |
| 2026-04-15 11:49 | 44.39781 | 31.41310 | 38264 ft | 427 kts | 342° |
| 2026-04-15 11:49 | 44.45529 | 31.39325 | 38264 ft | 427 kts | 342° |
| 2026-04-15 11:50 | 44.51307 | 31.37326 | 38263 ft | 427 kts | 342° |
| 2026-04-15 11:50 | 44.57060 | 31.35331 | 38115 ft | 427 kts | 342° |
| 2026-04-15 11:51 | 44.59918 | 31.34337 | 37867 ft | 425 kts | 341° |
| 2026-04-15 11:51 | 44.62752 | 31.33353 | 37578 ft | 421 kts | 341° |
| 2026-04-15 11:51 | 44.65621 | 31.32356 | 36813 ft | 426 kts | 342° |
| 2026-04-15 11:51 | 44.68492 | 31.31351 | 35777 ft | 435 kts | 342° |
| 2026-04-15 11:52 | 44.71449 | 31.30317 | 34868 ft | 440 kts | 342° |
| 2026-04-15 11:52 | 44.74414 | 31.29281 | 34091 ft | 441 kts | 342° |
| 2026-04-15 11:52 | 44.77355 | 31.28256 | 33343 ft | 442 kts | 342° |
| 2026-04-15 11:52 | 44.80329 | 31.27219 | 32564 ft | 442 kts | 342° |
| 2026-04-15 11:53 | 44.83300 | 31.26180 | 31771 ft | 443 kts | 342° |
| 2026-04-15 11:53 | 44.86264 | 31.25142 | 31177 ft | 439 kts | 342° |
| 2026-04-15 11:53 | 44.89185 | 31.24122 | 30592 ft | 429 kts | 342° |
| 2026-04-15 11:53 | 44.92052 | 31.23118 | 29748 ft | 425 kts | 342° |
| 2026-04-15 11:54 | 44.94906 | 31.22115 | 28889 ft | 420 kts | 342° |
| 2026-04-15 11:54 | 44.97718 | 31.21125 | 28084 ft | 414 kts | 342° |
| 2026-04-15 11:54 | 45.00471 | 31.20155 | 27296 ft | 408 kts | 342° |
| 2026-04-15 11:54 | 45.03200 | 31.19192 | 26495 ft | 402 kts | 342° |
| 2026-04-15 11:55 | 45.05870 | 31.18250 | 25709 ft | 397 kts | 342° |
| 2026-04-15 11:55 | 45.08512 | 31.17317 | 24924 ft | 391 kts | 342° |
| 2026-04-15 11:55 | 45.11158 | 31.16381 | 24141 ft | 386 kts | 342° |
| 2026-04-15 11:55 | 45.13748 | 31.15463 | 23538 ft | 384 kts | 342° |
| 2026-04-15 11:56 | 45.16310 | 31.14555 | 23049 ft | 379 kts | 342° |
| 2026-04-15 11:56 | 45.18860 | 31.13650 | 22591 ft | 374 kts | 342° |
| 2026-04-15 11:56 | 45.21350 | 31.12767 | 22152 ft | 369 kts | 342° |
| 2026-04-15 11:56 | 45.23828 | 31.11887 | 21708 ft | 364 kts | 342° |
| 2026-04-15 11:57 | 45.26276 | 31.11014 | 21266 ft | 360 kts | 342° |
| 2026-04-15 11:57 | 45.31040 | 31.09268 | 20402 ft | 352 kts | 342° |
| 2026-04-15 11:57 | 45.33411 | 31.08393 | 19961 ft | 349 kts | 342° |
| 2026-04-15 11:58 | 45.35742 | 31.07532 | 19522 ft | 347 kts | 342° |
| 2026-04-15 11:58 | 45.38049 | 31.06682 | 19089 ft | 344 kts | 342° |
| 2026-04-15 11:58 | 45.40370 | 31.05825 | 18648 ft | 341 kts | 342° |
| 2026-04-15 11:58 | 45.42646 | 31.04984 | 18215 ft | 339 kts | 342° |
| 2026-04-15 11:59 | 45.44896 | 31.04154 | 17798 ft | 336 kts | 342° |
| 2026-04-15 11:59 | 45.47158 | 31.03317 | 17382 ft | 333 kts | 342° |
| 2026-04-15 11:59 | 45.49370 | 31.02499 | 16977 ft | 330 kts | 342° |
| 2026-04-15 11:59 | 45.51586 | 31.01678 | 16566 ft | 328 kts | 343° |
| 2026-04-15 12:00 | 45.53786 | 31.00863 | 16154 ft | 326 kts | 343° |
| 2026-04-15 12:00 | 45.55970 | 31.00053 | 15737 ft | 324 kts | 343° |
| 2026-04-15 12:00 | 45.58133 | 30.99250 | 15323 ft | 322 kts | 343° |
| 2026-04-15 12:00 | 45.60286 | 30.98451 | 14915 ft | 320 kts | 343° |
| 2026-04-15 12:01 | 45.62430 | 30.97655 | 14515 ft | 318 kts | 343° |
| 2026-04-15 12:01 | 45.64571 | 30.96859 | 14115 ft | 317 kts | 343° |
| 2026-04-15 12:01 | 45.66701 | 30.96066 | 13717 ft | 315 kts | 343° |
| 2026-04-15 12:01 | 45.68788 | 30.95288 | 13324 ft | 313 kts | 343° |
| 2026-04-15 12:02 | 45.70892 | 30.94504 | 12921 ft | 312 kts | 343° |
| 2026-04-15 12:02 | 45.72995 | 30.93719 | 12516 ft | 311 kts | 344° |
| 2026-04-15 12:02 | 45.75081 | 30.92940 | 12077 ft | 311 kts | 344° |
| 2026-04-15 12:02 | 45.77178 | 30.92159 | 11638 ft | 311 kts | 344° |
| 2026-04-15 12:03 | 45.79254 | 30.91384 | 11205 ft | 311 kts | 344° |
| 2026-04-15 12:03 | 45.81321 | 30.90613 | 10888 ft | 306 kts | 344° |
| 2026-04-15 12:03 | 45.83364 | 30.89850 | 10706 ft | 296 kts | 344° |
| 2026-04-15 12:03 | 45.85308 | 30.89126 | 10587 ft | 286 kts | 344° |
| 2026-04-15 12:04 | 45.87198 | 30.88419 | 10460 ft | 276 kts | 344° |
| 2026-04-15 12:04 | 45.89021 | 30.87737 | 10337 ft | 266 kts | 344° |
| 2026-04-15 12:04 | 45.90807 | 30.87128 | 10121 ft | 261 kts | 346° |
| 2026-04-15 12:04 | 45.92553 | 30.86571 | 9875 ft | 256 kts | 347° |
| 2026-04-15 12:05 | 45.94283 | 30.86024 | 9638 ft | 253 kts | 347° |
| 2026-04-15 12:05 | 45.95982 | 30.85487 | 9401 ft | 249 kts | 347° |
| 2026-04-15 12:05 | 45.97664 | 30.84952 | 9116 ft | 247 kts | 347° |
| 2026-04-15 12:05 | 45.99331 | 30.84421 | 8797 ft | 247 kts | 347° |
| 2026-04-15 12:06 | 46.01018 | 30.83885 | 8487 ft | 247 kts | 347° |
| 2026-04-15 12:06 | 46.02564 | 30.83393 | 8245 ft | 245 kts | 347° |
| 2026-04-15 12:06 | 46.04218 | 30.82864 | 7881 ft | 247 kts | 347° |
| 2026-04-15 12:06 | 46.05900 | 30.82325 | 7508 ft | 250 kts | 347° |
| 2026-04-15 12:07 | 46.07630 | 30.81871 | 7131 ft | 253 kts | 352° |
| 2026-04-15 12:07 | 46.09358 | 30.81469 | 6762 ft | 255 kts | 348° |
| 2026-04-15 12:07 | 46.11093 | 30.80883 | 6459 ft | 254 kts | 344° |
| 2026-04-15 12:07 | 46.12791 | 30.80212 | 6182 ft | 252 kts | 342° |
| 2026-04-15 12:08 | 46.14492 | 30.79497 | 5850 ft | 253 kts | 342° |
| 2026-04-15 12:08 | 46.16173 | 30.78773 | 5478 ft | 255 kts | 342° |
| 2026-04-15 12:08 | 46.17874 | 30.78035 | 5083 ft | 253 kts | 342° |
| 2026-04-15 12:08 | 46.19541 | 30.77312 | 4685 ft | 251 kts | 342° |
| 2026-04-15 12:09 | 46.21214 | 30.76586 | 4282 ft | 249 kts | 342° |
| 2026-04-15 12:09 | 46.22861 | 30.75872 | 3913 ft | 246 kts | 342° |
| 2026-04-15 12:09 | 46.24497 | 30.75164 | 3589 ft | 241 kts | 342° |
| 2026-04-15 12:09 | 46.26075 | 30.74482 | 3272 ft | 233 kts | 342° |
| 2026-04-15 12:10 | 46.27597 | 30.73823 | 2967 ft | 227 kts | 342° |
| 2026-04-15 12:10 | 46.29079 | 30.73183 | 2674 ft | 213 kts | 342° |
| 2026-04-15 12:10 | 46.30428 | 30.72602 | 2473 ft | 193 kts | 342° |
| 2026-04-15 12:10 | 46.31684 | 30.72059 | 2184 ft | 185 kts | 342° |
| 2026-04-15 12:11 | 46.32898 | 30.71534 | 1931 ft | 176 kts | 342° |
| 2026-04-15 12:11 | 46.34036 | 30.71043 | 1695 ft | 167 kts | 342° |
| 2026-04-15 12:11 | 46.35122 | 30.70574 | 1456 ft | 158 kts | 342° |
| 2026-04-15 12:11 | 46.36134 | 30.70136 | 1248 ft | 150 kts | 342° |
| 2026-04-15 12:12 | 46.37128 | 30.69706 | 1058 ft | 148 kts | 342° |
| 2026-04-15 12:12 | 46.38120 | 30.69282 | 881 ft | 148 kts | 342° |
| 2026-04-15 12:12 | 46.39112 | 30.68850 | 686 ft | 147 kts | 341° |
| 2026-04-15 12:12 | 46.40087 | 30.68424 | 490 ft | 147 kts | 342° |
| 2026-04-15 12:13 | 46.41071 | 30.67995 | 284 ft | 146 kts | 342° |
| 2026-04-15 12:13 | 46.42032 | 30.67587 | 179 ft | 135 kts | 342° |
| 2026-04-15 12:13 | 46.42768 | 30.67264 | 177 ft | 85 kts | 344° |
| 2026-04-15 12:13 | 46.43264 | 30.67050 | 177 ft | 63 kts | 343° |
| 2026-04-15 12:14 | 46.43592 | 30.66910 | 177 ft | 39 kts | 344° |
| 2026-04-15 12:14 | 46.43773 | 30.66831 | 177 ft | 23 kts | 342° |
| 2026-04-15 12:14 | 46.43879 | 30.66809 | 177 ft | 12 kts | 21° |
| 2026-04-15 12:14 | 46.43923 | 30.66913 | 177 ft | 13 kts | 73° |
| 2026-04-15 12:15 | 46.43950 | 30.67046 | 177 ft | 14 kts | 74° |
| 2026-04-15 12:15 | 46.43979 | 30.67188 | 177 ft | 15 kts | 74° |
| 2026-04-15 12:15 | 46.44009 | 30.67298 | 177 ft | 10 kts | 45° |
| 2026-04-15 12:15 | 46.44080 | 30.67312 | 177 ft | 11 kts | 350° |
| 2026-04-15 12:16 | 46.44152 | 30.67294 | 177 ft | 6 kts | 359° |
| 2026-04-15 12:16 | 46.44179 | 30.67324 | 177 ft | 4 kts | 75° |
| 2026-04-15 12:16 | 46.44184 | 30.67359 | 177 ft | 3 kts | 80° |
| 2026-04-15 12:16 | 46.44186 | 30.67376 | 177 ft | 0 kts | 81° |